Ellison, Illinois
Current Conditions -  °F | °C
As of 4:35 PM on Tuesday 21 Oct 2014 (Local Time) from KMQB Reporting Station
Clear Clear  
Wind Chill: 60°   Ceiling: Unl
Heat Index: 60°   Visibility: 10mi
Dew Point: 39°   Wind: 9mph
Humidity: 46%   Direction: 50°NE
Pressure: 30.17"   Gusts: NA
Location:  40.7223°N, 90.7308°W
Report Text: KMQB 212135Z AUTO 05008KT 10SM CLR 16/04 A3017 RMK AO2 T01580041
Loading
Personal Weather Stations






























Interactive Weather Map
Tropical Storm Tracking
New forecast layout! Learn more

10-Day Weather Forecast

Advertisements
Track Severe Weather on mobile